Timonium, Maryland
Current Conditions -  °F | °C
As of 3:30 AM on Thursday 27 Nov 2014 (Local Time) from KMTN Reporting Station
Scattered Clouds Scattered Clouds  
Wind Chill: 31°   Ceiling: Unl
Heat Index: 36°   Visibility: 10mi
Dew Point: 32°   Wind: 6mph
Humidity: 87%   Direction: 230°SW
Pressure: 30.02"   Gusts: NA
Location:  39.4211°N, 76.6266°W
Report Text: KMTN 270830Z AUTO 23005KT 10SM SCT070 SCT100 SCT120 02/00 A3002 RMK AO2
Loading
Personal Weather Stations






























Interactive Weather Map New forecast layout! Learn more

10-Day Weather Forecast

Advertisements
Track Severe Weather on mobile